Time;durP1;ratioP1;P1;durP2;ratioP2;P2;SDS_P1;SDS_P2;PMS_P1;PMS_P2;Temp;Humidity;BMP_temperature;BMP_pressure;BME280_temperature;BME280_humidity;BME280_pressure;Samples;Min_cycle;Max_cycle;Signal;HPM_P1;HPM_P2
2021/11/09 00:01:03;;;;;;;;;;;;;;;6.42;78.54;100837.02;103777;1316;95504;-66
2021/11/09 00:04:03;;;;;;;;;;;;;;;6.42;78.41;100839.78;103273;1313;124288;-67
2021/11/09 00:07:10;;;;;;;;;;;;;;;6.39;78.27;100841.02;103246;1316;111592;-66
2021/11/09 00:09:58;;;;;;;;;;;;;;;6.37;78.32;100843.62;103184;1313;123922;-66
2021/11/09 00:12:48;;;;;;;;;;;;;;;6.36;78.36;100850.70;103280;1316;109000;-65
2021/11/09 00:15:34;;;;;;;;;;;;;;;6.36;78.31;100850.36;104530;1315;124628;-64
2021/11/09 00:18:21;;;;;;;;;;;;;;;6.35;78.03;100856.24;104679;1313;95558;-63
2021/11/09 00:21:08;;;;;;;;;;;;;;;6.35;77.83;100860.38;104584;1316;123723;-66
2021/11/09 00:23:59;;;;;;;;;;;;;;;6.30;77.71;100868.70;103421;1316;109192;-64
2021/11/09 00:26:47;;;;;;;;;;;;;;;6.25;77.46;100872.86;104587;1313;109082;-65
2021/11/09 00:29:34;;;;;;;;;;;;;;;6.22;77.69;100873.73;104501;1313;124128;-64
2021/11/09 00:32:21;;;;;;;;;;;;;;;6.18;77.37;100876.52;103363;1313;96641;-65
2021/11/09 00:35:13;;;;;;;;;;;;;;;6.15;77.17;100879.13;103194;1313;124436;-67
2021/11/09 00:38:01;;;;;;;;;;;;;;;6.12;77.25;100884.15;103592;1322;108982;-65
2021/11/09 00:40:47;;;;;;;;;;;;;;;6.11;77.26;100890.19;104538;1314;124077;-65
2021/11/09 00:43:34;;;;;;;;;;;;;;;6.06;76.94;100891.23;104185;1314;96519;-65
2021/11/09 00:46:21;;;;;;;;;;;;;;;6.03;77.09;100899.53;103161;1314;123677;-65
2021/11/09 00:49:08;;;;;;;;;;;;;;;6.00;77.00;100897.64;103346;1313;110482;-64
2021/11/09 00:51:55;;;;;;;;;;;;;;;5.97;77.22;100898.70;104535;1314;125135;-65
2021/11/09 00:54:42;;;;;;;;;;;;;;;5.92;77.08;100905.09;104637;1315;107864;-64
2021/11/09 00:57:30;;;;;;;;;;;;;;;5.87;77.11;100911.29;104060;1314;124309;-65
2021/11/09 01:00:19;;;;;;;;;;;;;;;5.80;77.14;100914.94;103827;1313;96515;-64
2021/11/09 01:03:07;;;;;;;;;;;;;;;5.77;77.20;100917.88;103231;1313;110818;-66
2021/11/09 01:05:54;;;;;;;;;;;;;;;5.76;77.40;100915.46;103297;1313;109126;-65
2021/11/09 01:08:41;;;;;;;;;;;;;;;5.76;77.60;100915.98;104630;1313;106183;-65
2021/11/09 01:11:28;;;;;;;;;;;;;;;5.82;77.73;100917.17;104547;1316;124283;-65
2021/11/09 01:14:16;;;;;;;;;;;;;;;5.83;77.43;100918.71;103613;1316;96480;-65
2021/11/09 01:17:03;;;;;;;;;;;;;;;5.80;77.69;100917.34;103162;1313;123720;-64
2021/11/09 01:19:50;;;;;;;;;;;;;;;5.76;77.43;100922.02;103288;1314;109025;-64
2021/11/09 01:22:37;;;;;;;;;;;;;;;5.71;77.50;100925.80;103136;1317;124328;-65
2021/11/09 01:25:25;;;;;;;;;;;;;;;5.67;77.65;100925.64;103270;1316;96507;-65
2021/11/09 01:28:11;;;;;;;;;;;;;;;5.65;77.71;100928.76;104568;1309;124490;-65
2021/11/09 01:30:59;;;;;;;;;;;;;;;5.62;77.56;100930.49;103875;1316;111214;-66
2021/11/09 01:33:46;;;;;;;;;;;;;;;5.61;77.63;100932.39;104571;1316;124025;-66
2021/11/09 01:36:32;;;;;;;;;;;;;;;5.58;77.63;100930.16;104648;1313;107514;-66
2021/11/09 01:39:19;;;;;;;;;;;;;;;5.57;77.39;100934.98;104631;1313;94621;-66
2021/11/09 01:42:06;;;;;;;;;;;;;;;5.54;77.51;100936.34;103562;1314;123520;-65
2021/11/09 01:44:53;;;;;;;;;;;;;;;5.54;77.45;100938.06;103428;1313;110476;-65
2021/11/09 01:47:41;;;;;;;;;;;;;;;5.48;77.02;100936.52;103159;1313;124210;-64
2021/11/09 01:50:30;;;;;;;;;;;;;;;5.39;77.13;100939.64;103298;1314;109012;-65
2021/11/09 01:53:17;;;;;;;;;;;;;;;5.28;77.12;100939.12;103162;1313;124151;-65
2021/11/09 01:56:06;;;;;;;;;;;;;;;5.18;77.32;100942.55;103258;1313;96558;-65
2021/11/09 01:58:53;;;;;;;;;;;;;;;5.11;77.48;100946.86;103821;1316;123471;-65
2021/11/09 02:01:41;;;;;;;;;;;;;;;5.05;77.65;100944.10;103748;1321;108869;-67
2021/11/09 02:04:27;;;;;;;;;;;;;;;5.00;77.29;100950.27;103941;1314;124450;-66
2021/11/09 02:07:15;;;;;;;;;;;;;;;4.92;77.22;100956.99;104640;1313;95079;-66
2021/11/09 02:10:01;;;;;;;;;;;;;;;4.83;77.43;100962.83;104584;1313;123804;-66
2021/11/09 02:12:48;;;;;;;;;;;;;;;4.74;77.21;100965.91;103596;1314;109169;-66
2021/11/09 02:15:36;;;;;;;;;;;;;;;4.68;77.35;100967.95;103263;1316;108741;-66
2021/11/09 02:18:23;;;;;;;;;;;;;;;4.60;77.34;100969.64;103149;1318;123509;-66
2021/11/09 02:21:11;;;;;;;;;;;;;;;4.52;77.72;100975.48;103291;1313;96500;-65
2021/11/09 02:23:58;;;;;;;;;;;;;;;4.45;77.87;100982.48;103164;1316;123580;-65
2021/11/09 02:26:45;;;;;;;;;;;;;;;4.38;77.63;100982.64;104482;1315;110399;-65
2021/11/09 02:29:33;;;;;;;;;;;;;;;4.34;77.86;100984.86;103176;1316;124364;-66
2021/11/09 02:32:21;;;;;;;;;;;;;;;4.31;77.87;100987.76;103075;1310;266703;-66
2021/11/09 02:35:09;;;;;;;;;;;;;;;4.30;77.70;100992.05;103193;1314;124201;-65
2021/11/09 02:37:57;;;;;;;;;;;;;;;4.30;78.00;100995.84;103693;1312;94857;-66
2021/11/09 02:40:44;;;;;;;;;;;;;;;4.28;77.81;101005.81;104129;1314;124433;-65
2021/11/09 02:43:31;;;;;;;;;;;;;;;4.24;77.99;101009.42;103316;1316;109022;-66
2021/11/09 02:49:13;;;;;;;;;;;;;;;4.18;77.85;101020.92;104681;1313;94955;-66
2021/11/09 02:52:04;;;;;;;;;;;;;;;4.16;77.68;101020.05;104130;1319;95323;-67
2021/11/09 02:54:57;;;;;;;;;;;;;;;4.15;77.81;101020.74;103717;1316;111725;-65
2021/11/09 02:57:52;;;;;;;;;;;;;;;4.11;77.87;101020.17;104673;1316;109060;-66
2021/11/09 03:06:39;;;;;;;;;;;;;;;3.99;77.49;101037.31;103260;1316;123706;-65
2021/11/09 03:12:31;;;;;;;;;;;;;;;3.86;77.59;101043.40;103217;1313;124374;-64
2021/11/09 03:15:24;;;;;;;;;;;;;;;3.82;77.76;101047.16;103202;1313;107521;-65
2021/11/09 03:18:14;;;;;;;;;;;;;;;3.81;77.89;101055.07;103227;1313;124505;-65
2021/11/09 03:45:23;;;;;;;;;;;;;;;3.15;78.41;101102.71;103312;1313;108839;-65
2021/11/09 03:48:13;;;;;;;;;;;;;;;3.11;78.22;101102.33;103043;1316;124436;-64
2021/11/09 03:51:01;;;;;;;;;;;;;;;3.06;78.48;101103.48;103337;1313;97230;-64
2021/11/09 03:53:48;;;;;;;;;;;;;;;3.04;78.48;101104.63;103736;1313;124070;-65
2021/11/09 03:56:40;;;;;;;;;;;;;;;3.01;78.56;101103.74;103305;1313;109193;-64
2021/11/09 04:00:19;;;;;;;;;;;;;;;2.97;78.37;101107.82;103183;1313;124250;-65
2021/11/09 04:05:27;;;;;;;;;;;;;;;2.87;78.61;101116.45;103193;1318;123568;-65
2021/11/09 04:17:12;;;;;;;;;;;;;;;2.59;78.88;101120.88;103248;1313;124547;-66
2021/11/09 04:20:12;;;;;;;;;;;;;;;2.56;78.92;101121.86;103296;1316;96500;-65
2021/11/09 04:29:34;;;;;;;;;;;;;;;2.48;78.93;101142.68;103198;1313;124048;-66
2021/11/09 05:11:27;;;;;;;;;;;;;;;1.98;79.22;101208.43;103241;1316;124279;-65
2021/11/09 05:14:14;;;;;;;;;;;;;;;1.95;79.32;101212.99;103291;1316;108890;-65
2021/11/09 05:17:01;;;;;;;;;;;;;;;1.93;79.32;101218.97;103181;1313;126111;-66
2021/11/09 05:19:49;;;;;;;;;;;;;;;1.95;79.38;101221.73;103299;1314;96551;-65
2021/11/09 05:22:36;;;;;;;;;;;;;;;1.95;79.36;101227.91;103127;1313;123745;-66
2021/11/09 05:25:23;;;;;;;;;;;;;;;1.95;79.35;101236.48;103795;1314;109120;-64
2021/11/09 05:28:11;;;;;;;;;;;;;;;1.90;79.30;101240.52;104693;1313;110610;-67
2021/11/09 05:30:58;;;;;;;;;;;;;;;1.86;79.29;101244.23;103493;1316;123421;-66
2021/11/09 05:33:45;;;;;;;;;;;;;;;1.84;79.46;101250.20;103149;1313;96507;-67
2021/11/09 05:36:42;;;;;;;;;;;;;;;1.88;79.57;101251.64;103212;1313;124424;-66
2021/11/09 05:42:17;;;;;;;;;;;;;;;1.97;79.47;101262.95;103137;1313;123692;-67
2021/11/09 05:45:05;;;;;;;;;;;;;;;1.97;79.42;101269.48;103271;1314;97614;-67
2021/11/09 05:47:52;;;;;;;;;;;;;;;1.95;79.24;101271.66;103194;1313;123950;-67
2021/11/09 05:50:39;;;;;;;;;;;;;;;1.91;79.19;101273.98;103295;1313;110788;-67
2021/11/09 05:53:26;;;;;;;;;;;;;;;1.88;79.13;101273.41;104218;1314;124463;-65
2021/11/09 05:56:13;;;;;;;;;;;;;;;1.84;79.23;101278.67;104685;1313;107957;-67
2021/11/09 05:58:59;;;;;;;;;;;;;;;1.82;79.25;101287.71;104574;1316;125175;-65
2021/11/09 06:01:47;;;;;;;;;;;;;;;1.86;79.29;101292.06;104606;1313;94902;-64
2021/11/09 06:04:34;;;;;;;;;;;;;;;1.87;79.40;101294.67;104701;1313;109803;-71
2021/11/09 06:07:21;;;;;;;;;;;;;;;1.91;79.49;101298.16;104677;1313;109108;-71
2021/11/09 06:10:07;;;;;;;;;;;;;;;1.93;79.26;101306.44;104664;1313;109429;-70
2021/11/09 06:12:54;;;;;;;;;;;;;;;1.99;79.20;101313.41;104545;1313;124358;-69
2021/11/09 06:15:40;;;;;;;;;;;;;;;2.03;79.23;101316.09;103720;1313;96577;-70
2021/11/09 06:18:29;;;;;;;;;;;;;;;2.11;79.15;101320.86;103242;1313;123710;-71
2021/11/09 06:21:15;;;;;;;;;;;;;;;2.20;79.23;101325.17;103289;1310;108961;-71
2021/11/09 06:24:03;;;;;;;;;;;;;;;2.28;79.12;101332.50;103155;1314;123810;-71
2021/11/09 06:26:49;;;;;;;;;;;;;;;2.35;79.21;101336.61;104650;1313;94609;-70
2021/11/09 06:29:36;;;;;;;;;;;;;;;2.46;79.16;101337.65;104574;1313;124434;-70
2021/11/09 06:32:23;;;;;;;;;;;;;;;2.59;79.14;101342.86;104670;1314;112593;-70
2021/11/09 06:35:10;;;;;;;;;;;;;;;2.72;78.95;101345.67;104616;1316;124471;-72
2021/11/09 06:37:57;;;;;;;;;;;;;;;2.83;78.91;101350.48;104597;1319;109088;-73
2021/11/09 06:40:44;;;;;;;;;;;;;;;2.91;78.54;101358.38;104557;1316;94661;-76
2021/11/09 06:43:30;;;;;;;;;;;;;;;2.94;78.25;101369.58;104415;1315;124272;-75
2021/11/09 06:46:17;;;;;;;;;;;;;;;2.96;78.31;101380.97;104352;1316;111939;-76
2021/11/09 06:49:04;;;;;;;;;;;;;;;3.00;78.40;101395.80;104501;1316;124587;-75
2021/11/09 06:51:50;;;;;;;;;;;;;;;3.01;78.26;101401.48;104558;1316;109238;-76
2021/11/09 06:54:37;;;;;;;;;;;;;;;3.00;77.98;101407.99;104454;1319;124604;-76
2021/11/09 06:57:23;;;;;;;;;;;;;;;3.01;78.12;101414.03;103761;1310;96381;-76
2021/11/09 07:00:13;;;;;;;;;;;;;;;3.08;78.09;101420.86;104550;1316;125737;-76
2021/11/09 07:02:59;;;;;;;;;;;;;;;3.20;78.23;101426.02;104644;1317;107905;-76
2021/11/09 07:05:46;;;;;;;;;;;;;;;3.28;78.14;101432.03;104222;1315;125685;-75
2021/11/09 07:08:33;;;;;;;;;;;;;;;3.41;78.33;101433.27;104020;1316;94930;-76
2021/11/09 07:11:19;;;;;;;;;;;;;;;3.51;77.72;101435.99;103525;1317;125732;-77
2021/11/09 07:14:06;;;;;;;;;;;;;;;3.53;77.50;101446.16;104158;1316;111123;-75
2021/11/09 07:16:53;;;;;;;;;;;;;;;3.55;77.46;101448.08;103328;1313;123720;-77
2021/11/09 07:19:40;;;;;;;;;;;;;;;3.59;77.59;101449.89;103285;1316;107222;-76
2021/11/09 07:22:27;;;;;;;;;;;;;;;3.63;77.20;101457.36;103238;1316;124668;-76
2021/11/09 07:25:14;;;;;;;;;;;;;;;3.61;76.61;101461.63;103376;1316;97289;-76
2021/11/09 07:28:01;;;;;;;;;;;;;;;3.61;76.79;101472.62;103292;1313;124410;-76
2021/11/09 07:30:58;;;;;;;;;;;;;;;3.70;76.67;101480.83;103392;1317;108860;-76
2021/11/09 07:33:45;;;;;;;;;;;;;;;3.70;76.44;101483.23;103279;1316;123942;-76
2021/11/09 07:36:35;;;;;;;;;;;;;;;3.68;76.18;101488.38;103374;1318;96481;-77
2021/11/09 07:39:22;;;;;;;;;;;;;;;3.63;76.38;101501.72;103850;1316;96511;-71
2021/11/09 07:42:09;;;;;;;;;;;;;;;3.55;76.11;101503.29;103283;1320;123348;-71
2021/11/09 07:44:56;;;;;;;;;;;;;;;3.51;76.54;101512.00;104602;1316;108997;-69
2021/11/09 07:47:43;;;;;;;;;;;;;;;3.55;76.51;101516.88;103309;1313;124934;-71
2021/11/09 07:50:31;;;;;;;;;;;;;;;3.58;76.35;101521.75;104508;1316;95223;-71
2021/11/09 07:53:18;;;;;;;;;;;;;;;3.59;76.30;101523.66;103185;1318;123832;-69
2021/11/09 07:59:23;;;;;;;;;;;;;;;3.63;75.92;101532.00;103273;1313;123697;-69
2021/11/09 08:02:26;;;;;;;;;;;;;;;3.63;76.06;101536.30;104128;1315;108970;-70
2021/11/09 08:05:12;;;;;;;;;;;;;;;3.65;75.96;101538.72;103222;1316;124088;-70
2021/11/09 08:08:22;;;;;;;;;;;;;;;3.64;75.92;101544.39;104705;1316;94450;-71
2021/11/09 08:11:09;;;;;;;;;;;;;;;3.65;75.55;101551.97;103499;1317;124266;-69
2021/11/09 08:13:55;;;;;;;;;;;;;;;3.63;75.35;101546.09;103300;1316;109220;-69
2021/11/09 08:16:43;;;;;;;;;;;;;;;3.63;75.46;101550.73;103196;1316;123718;-69
2021/11/09 08:19:29;;;;;;;;;;;;;;;3.66;75.71;101557.30;104632;1317;94807;-70
2021/11/09 08:22:17;;;;;;;;;;;;;;;3.66;75.56;101553.70;103581;1316;125356;-69
2021/11/09 08:25:04;;;;;;;;;;;;;;;3.61;75.08;101558.27;103283;1316;111254;-70
2021/11/09 08:27:51;;;;;;;;;;;;;;;3.55;75.42;101563.83;103217;1316;123868;-69
2021/11/09 08:30:38;;;;;;;;;;;;;;;3.50;75.17;101564.60;103366;1313;108995;-69
2021/11/09 08:33:27;;;;;;;;;;;;;;;3.37;74.90;101571.41;103320;1316;96532;-70
2021/11/09 08:36:16;;;;;;;;;;;;;;;3.22;75.01;101577.66;103263;1314;124036;-70
2021/11/09 08:39:05;;;;;;;;;;;;;;;3.08;75.03;101576.88;103349;1316;110774;-70
2021/11/09 08:45:06;;;;;;;;;;;;;;;2.80;75.29;101582.66;104691;1314;108943;-70
2021/11/09 08:47:57;;;;;;;;;;;;;;;2.74;75.82;101586.33;104599;1314;124948;-70
2021/11/09 08:50:44;;;;;;;;;;;;;;;2.71;75.90;101587.99;103933;1314;96583;-68
2021/11/09 08:53:35;;;;;;;;;;;;;;;2.76;76.22;101598.38;103153;1317;123725;-69
2021/11/09 08:56:44;;;;;;;;;;;;;;;2.85;76.63;101598.08;103315;1317;108960;-70
2021/11/09 09:05:29;;;;;;;;;;;;;;;3.20;76.78;101603.21;104106;1314;124077;-69
2021/11/09 09:08:16;;;;;;;;;;;;;;;3.31;76.50;101612.21;104686;1317;110842;-70
2021/11/09 09:11:04;;;;;;;;;;;;;;;3.41;76.43;101614.30;104565;1316;123539;-70
2021/11/09 09:13:51;;;;;;;;;;;;;;;3.50;76.31;101618.42;104706;1316;107789;-70
2021/11/09 09:16:39;;;;;;;;;;;;;;;3.60;76.19;101617.59;103590;1321;124924;-70
2021/11/09 09:19:30;;;;;;;;;;;;;;;3.70;76.16;101617.41;104621;1316;95084;-70
2021/11/09 09:22:20;;;;;;;;;;;;;;;3.80;75.66;101619.66;104506;1316;125604;-70
2021/11/09 09:58:16;;;;;;;;;;;;;;;4.17;74.86;101675.38;103390;1317;108994;-68
2021/11/09 10:01:03;;;;;;;;;;;;;;;4.13;74.58;101676.84;103278;1315;124322;-70
2021/11/09 10:03:50;;;;;;;;;;;;;;;4.06;74.57;101676.89;103975;1315;94593;-67
2021/11/09 10:06:46;;;;;;;;;;;;;;;4.06;74.59;101679.98;103277;1318;123653;-67
2021/11/09 10:09:41;;;;;;;;;;;;;;;4.13;75.15;101682.86;104642;1313;107950;-67
2021/11/09 10:12:32;;;;;;;;;;;;;;;4.27;75.25;101688.77;103444;1317;124402;-68
2021/11/09 10:15:22;;;;;;;;;;;;;;;4.39;75.02;101683.98;103330;1320;96539;-69
2021/11/09 10:18:13;;;;;;;;;;;;;;;4.40;74.58;101683.14;103301;1314;126356;-69
2021/11/09 10:21:01;;;;;;;;;;;;;;;4.45;74.22;101690.11;103413;1319;110583;-67
2021/11/09 10:23:48;;;;;;;;;;;;;;;4.43;73.53;101693.33;103243;1313;124013;-67
2021/11/09 10:26:35;;;;;;;;;;;;;;;4.34;73.67;101698.38;104661;1319;108174;-68
2021/11/09 10:29:41;;;;;;;;;;;;;;;4.28;73.81;101699.97;104556;1316;124153;-68
2021/11/09 10:32:29;;;;;;;;;;;;;;;4.17;73.60;101701.18;104025;1316;262879;-70
2021/11/09 10:35:16;;;;;;;;;;;;;;;4.03;73.15;101696.80;103278;1315;123966;-66
2021/11/09 10:38:05;;;;;;;;;;;;;;;3.85;73.54;101697.34;103346;1313;109106;-69
2021/11/09 10:40:53;;;;;;;;;;;;;;;3.72;73.68;101703.45;103345;1313;108930;-69
2021/11/09 10:43:40;;;;;;;;;;;;;;;3.64;73.76;101701.07;103250;1316;125501;-69
2021/11/09 10:46:29;;;;;;;;;;;;;;;3.60;74.06;101702.90;103416;1312;96512;-69
2021/11/09 10:49:16;;;;;;;;;;;;;;;3.60;74.58;101701.16;103688;1313;123355;-69
2021/11/09 10:52:30;;;;;;;;;;;;;;;3.63;74.60;101701.92;103309;1316;107524;-68
2021/11/09 10:55:52;;;;;;;;;;;;;;;3.70;74.70;101703.92;104574;1315;124458;-68
2021/11/09 11:04:15;;;;;;;;;;;;;;;3.78;74.34;101706.84;103275;1316;111047;-72
2021/11/09 11:07:02;;;;;;;;;;;;;;;3.79;74.36;101705.15;103283;1314;124731;-71
2021/11/09 11:09:58;;;;;;;;;;;;;;;3.75;74.17;101707.45;103282;1314;108609;-68
2021/11/09 11:12:45;;;;;;;;;;;;;;;3.71;74.35;101706.17;103144;1317;124203;-68
2021/11/09 11:15:32;;;;;;;;;;;;;;;3.66;74.24;101708.67;103365;1316;96376;-68
2021/11/09 11:18:29;;;;;;;;;;;;;;;3.64;74.31;101711.23;103329;1319;123638;-70
2021/11/09 11:21:16;;;;;;;;;;;;;;;3.59;74.42;101718.35;103360;1314;109080;-70
2021/11/09 11:24:04;;;;;;;;;;;;;;;3.51;74.40;101719.73;103364;1317;123740;-68
2021/11/09 11:26:52;;;;;;;;;;;;;;;3.44;74.57;101719.59;103326;1314;96494;-69
2021/11/09 11:29:39;;;;;;;;;;;;;;;3.43;74.57;101726.45;103261;1321;124255;-70
2021/11/09 11:32:29;;;;;;;;;;;;;;;3.41;74.55;101732.08;103420;1317;111375;-68
2021/11/09 11:35:17;;;;;;;;;;;;;;;3.34;74.53;101737.43;103343;1316;108795;-69
2021/11/09 11:38:04;;;;;;;;;;;;;;;3.22;74.43;101743.02;103285;1319;108936;-68
2021/11/09 11:40:54;;;;;;;;;;;;;;;3.16;74.81;101745.64;103240;1314;96562;-76
2021/11/09 11:43:47;;;;;;;;;;;;;;;3.14;75.01;101751.26;103163;1313;123891;-69
2021/11/09 11:46:34;;;;;;;;;;;;;;;3.19;75.36;101746.39;103438;1319;112067;-69
2021/11/09 11:49:23;;;;;;;;;;;;;;;3.28;75.42;101745.39;103140;1313;124748;-69
2021/11/09 11:52:13;;;;;;;;;;;;;;;3.32;75.43;101745.98;104538;1319;108041;-68
2021/11/09 11:55:03;;;;;;;;;;;;;;;3.33;75.56;101749.61;103632;1316;123996;-69
2021/11/09 11:57:54;;;;;;;;;;;;;;;3.45;75.69;101751.43;103228;1315;96514;-69
2021/11/09 12:00:46;;;;;;;;;;;;;;;3.54;75.13;101751.09;104572;1319;125017;-68
2021/11/09 12:03:34;;;;;;;;;;;;;;;3.48;74.30;101754.93;104690;1313;108067;-68
2021/11/09 12:06:22;;;;;;;;;;;;;;;3.34;74.35;101759.63;104566;1316;123786;-69
2021/11/09 12:09:26;;;;;;;;;;;;;;;3.28;74.50;101756.92;104643;1316;95998;-68
2021/11/09 12:12:22;;;;;;;;;;;;;;;3.20;74.58;101753.61;103628;1316;124518;-69
2021/11/09 12:15:09;;;;;;;;;;;;;;;3.19;74.91;101753.59;104696;1314;109069;-68
2021/11/09 12:17:56;;;;;;;;;;;;;;;3.15;74.74;101760.39;104558;1316;124566;-69
2021/11/09 12:20:43;;;;;;;;;;;;;;;3.18;75.01;101757.70;104682;1314;108886;-69
2021/11/09 12:23:31;;;;;;;;;;;;;;;3.17;74.70;101759.56;104636;1313;94874;-69
2021/11/09 12:26:37;;;;;;;;;;;;;;;3.05;74.59;101761.37;104717;1313;94741;-69
2021/11/09 12:29:36;;;;;;;;;;;;;;;2.97;74.81;101763.25;104675;1314;111111;-69
2021/11/09 12:32:30;;;;;;;;;;;;;;;2.92;74.94;101761.42;104404;1314;124698;-68
2021/11/09 12:35:17;;;;;;;;;;;;;;;2.92;75.31;101765.90;103863;1317;109031;-68
2021/11/09 12:38:12;;;;;;;;;;;;;;;2.98;75.52;101767.23;104535;1314;124179;-69
2021/11/09 12:43:05;;;;;;;;;;;;;;;2.98;75.59;101771.88;100104;1351;634401;-68
2021/11/09 12:46:11;;;;;;;;;;;;;;;2.92;75.51;101775.85;102704;1328;92887;-68
2021/11/09 12:49:03;;;;;;;;;;;;;;;2.81;75.39;101777.81;102988;1328;123222;-68
2021/11/09 12:51:52;;;;;;;;;;;;;;;2.77;75.55;101777.55;103395;1324;105460;-74
2021/11/09 12:54:39;;;;;;;;;;;;;;;2.75;75.76;101779.74;103247;1328;123209;-68
2021/11/09 12:57:26;;;;;;;;;;;;;;;2.78;75.82;101784.45;103464;1325;129568;-68
2021/11/09 13:00:15;;;;;;;;;;;;;;;2.78;75.94;101780.84;103361;1325;123906;-68
2021/11/09 13:03:21;;;;;;;;;;;;;;;2.77;75.97;101782.87;103427;1329;92842;-68
2021/11/09 13:06:18;;;;;;;;;;;;;;;2.74;76.03;101784.70;103492;1326;107392;-69
2021/11/09 13:10:49;;;;;;;;;;;;;;;2.65;75.84;101781.90;100245;1349;634582;-68
2021/11/09 13:13:36;;;;;;;;;;;;;;;2.60;75.85;101784.88;102274;1323;123027;-68
2021/11/09 13:16:23;;;;;;;;;;;;;;;2.58;76.04;101779.66;102417;1327;94532;-69
2021/11/09 13:19:10;;;;;;;;;;;;;;;2.58;76.09;101780.52;102677;1326;123155;-68
2021/11/09 13:22:04;;;;;;;;;;;;;;;2.55;76.23;101779.42;104022;1321;107973;-68
2021/11/09 13:24:59;;;;;;;;;;;;;;;2.56;76.32;101777.23;103879;1317;124199;-67
2021/11/09 13:27:47;;;;;;;;;;;;;;;2.60;76.32;101772.31;104205;1319;93147;-67
2021/11/09 13:30:35;;;;;;;;;;;;;;;2.58;76.17;101770.41;102769;1329;123998;-67
2021/11/09 13:33:23;;;;;;;;;;;;;;;2.58;76.24;101771.77;104362;1318;108138;-67
2021/11/09 13:36:10;;;;;;;;;;;;;;;2.62;76.13;101767.39;104245;1318;109686;-68
2021/11/09 13:38:57;;;;;;;;;;;;;;;2.67;76.08;101765.27;103910;1319;123253;-67
2021/11/09 13:41:45;;;;;;;;;;;;;;;2.72;76.26;101768.19;102930;1323;95169;-66
2021/11/09 13:44:33;;;;;;;;;;;;;;;2.71;76.19;101766.95;102918;1319;123449;-72
2021/11/09 13:47:30;;;;;;;;;;;;;;;2.74;76.14;101770.62;104358;1319;109904;-72
2021/11/09 13:50:17;;;;;;;;;;;;;;;2.81;76.23;101773.69;104215;1319;124474;-72
2021/11/09 13:53:04;;;;;;;;;;;;;;;2.85;76.08;101775.50;104377;1322;108806;-72
2021/11/09 13:55:51;;;;;;;;;;;;;;;2.89;75.76;101781.98;104324;1319;124269;-72
2021/11/09 13:58:37;;;;;;;;;;;;;;;2.84;75.83;101782.17;104154;1319;95831;-72
2021/11/09 14:02:38;;;;;;;;;;;;;;;2.80;75.66;101780.89;102907;1320;123738;-71
2021/11/09 14:05:35;;;;;;;;;;;;;;;2.81;75.90;101786.24;102914;1319;109402;-71
2021/11/09 14:11:54;;;;;;;;;;;;;;;2.74;75.66;101788.99;103061;1317;95126;-71
2021/11/09 14:14:44;;;;;;;;;;;;;;;2.72;75.88;101788.94;104309;1320;124150;-73
2021/11/09 14:17:32;;;;;;;;;;;;;;;2.74;76.07;101790.20;104015;1320;110207;-73
2021/11/09 14:20:25;;;;;;;;;;;;;;;2.76;76.27;101786.13;104271;1323;123611;-73
2021/11/09 14:23:13;;;;;;;;;;;;;;;2.82;76.19;101791.92;103029;1319;108419;-72
2021/11/09 14:26:15;;;;;;;;;;;;;;;2.78;75.72;101796.83;104333;1316;123378;-73
2021/11/09 14:29:01;;;;;;;;;;;;;;;2.74;75.85;101795.35;103828;1320;95152;-71
2021/11/09 14:32:00;;;;;;;;;;;;;;;2.73;75.82;101803.23;103004;1318;124025;-71
2021/11/09 14:34:57;;;;;;;;;;;;;;;2.71;75.58;101802.85;104352;1320;107955;-72
2021/11/09 14:37:43;;;;;;;;;;;;;;;2.69;75.70;101802.63;104172;1319;123962;-64
2021/11/09 15:30:02;;;;;;;18.80;11.50;;;;;;;12.71;47.53;101777.73;103358;1316;137568;-68
2021/11/09 15:32:50;;;;;;;15.70;12.80;;;;;;;10.80;50.03;101788.83;103023;1320;108567;-69
2021/11/09 15:35:42;;;;;;;13.50;11.70;;;;;;;9.38;52.07;101793.23;103106;1319;108846;-70
2021/11/09 15:38:29;;;;;;;16.70;12.70;;;;;;;8.18;54.12;101797.23;103224;1316;167070;-71
2021/11/09 15:41:17;;;;;;;19.80;14.90;;;;;;;7.10;56.03;101802.59;103165;1316;94420;-70
2021/11/09 15:44:05;;;;;;;24.70;15.90;;;;;;;6.26;57.70;101804.11;103815;1317;138260;-70
2021/11/09 15:46:56;;;;;;;22.60;15.60;;;;;;;5.52;59.27;101804.06;103220;1316;108462;-70
2021/11/09 15:49:43;;;;;;;27.50;17.40;;;;;;;4.90;61.16;101801.77;104449;1311;137070;-70
2021/11/09 15:55:21;;;;;;;21.10;15.70;;;;;;;3.96;64.08;101798.03;102517;1320;138953;-71
2021/11/09 15:58:08;;;;;;;21.80;15.00;;;;;;;3.64;64.94;101802.56;103626;1319;95044;-70
2021/11/09 16:00:56;;;;;;;22.70;14.80;;;;;;;3.42;66.13;101808.79;103455;1320;138070;-69
2021/11/09 16:03:43;;;;;;;22.30;14.80;;;;;;;3.22;67.39;101805.75;104043;1318;109676;-69
2021/11/09 16:06:31;;;;;;;22.30;14.20;;;;;;;3.05;67.90;101808.96;104076;1320;137987;-70
2021/11/09 16:09:18;;;;;;;22.80;14.90;;;;;;;2.89;68.76;101806.89;103843;1323;94835;-69
2021/11/09 16:12:05;;;;;;;19.50;14.40;;;;;;;2.77;69.19;101812.59;103518;1325;93574;-70
2021/11/09 16:14:53;;;;;;;20.50;13.50;;;;;;;2.64;69.99;101821.02;104156;1320;137661;-70
2021/11/09 16:17:40;;;;;;;19.70;13.90;;;;;;;2.52;70.59;101823.11;104224;1321;108704;-69
2021/11/09 16:20:28;;;;;;;;;;;;;;;2.45;70.55;101824.64;104186;1324;137658;-70
2021/11/09 16:23:17;;;;;;;23.80;14.50;;;;;;;2.41;70.88;101828.35;104133;1319;94206;-70
2021/11/09 16:26:03;;;;;;;22.00;15.10;;;;;;;2.39;71.18;101826.58;103967;1319;137196;-69
2021/11/09 16:28:50;;;;;;;26.00;16.40;;;;;;;2.36;71.57;101827.17;103124;1319;109047;-70
2021/11/09 16:31:38;;;;;;;23.20;15.80;;;;;;;2.29;71.57;101832.97;103992;1320;137352;-70
2021/11/09 16:34:29;;;;;;;24.60;15.60;;;;;;;2.25;72.04;101838.02;103506;1319;109275;-70
2021/11/09 16:37:18;;;;;;;25.80;16.70;;;;;;;2.22;72.15;101841.88;102940;1320;138034;-69
2021/11/09 16:40:11;;;;;;;25.20;17.50;;;;;;;2.19;72.58;101838.23;104291;1319;94488;-70
2021/11/09 16:43:06;;;;;;;26.20;17.40;;;;;;;2.15;72.88;101841.86;103052;1319;137244;-69
2021/11/09 16:52:00;;;;;;;25.10;17.30;;;;;;;1.91;73.80;101852.68;103264;1319;96726;-70
2021/11/09 18:21:06;;;;;;;24.50;16.20;;;;;;;1.55;77.30;101862.59;103336;1316;137386;-70
2021/11/09 18:23:54;;;;;;;24.90;15.30;;;;;;;1.51;77.60;101865.56;103169;1316;95221;-70
2021/11/09 18:26:41;;;;;;;23.10;14.90;;;;;;;1.48;77.33;101867.69;103786;1316;140013;-70
2021/11/09 18:29:28;;;;;;;23.20;15.20;;;;;;;1.46;78.03;101867.14;104309;1316;109111;-66
2021/11/09 18:32:16;;;;;;;22.30;15.20;;;;;;;1.46;77.74;101867.45;104278;1316;137991;-66
2021/11/09 18:35:06;;;;;;;22.00;15.10;;;;;;;1.45;78.07;101874.80;104394;1317;107580;-66
2021/11/09 18:41:40;;;;;;;19.70;14.90;;;;;;;1.39;78.28;101885.40;102896;1316;95993;-65
2021/11/09 18:44:29;;;;;;;21.30;15.50;;;;;;;1.36;78.42;101888.06;102843;1316;139155;-66
2021/11/09 18:47:16;;;;;;;21.30;15.90;;;;;;;1.35;78.98;101895.91;102960;1317;109516;-66
2021/11/09 18:50:04;;;;;;;;;;;;;;;1.35;78.85;101894.71;104366;1313;139256;-67
2021/11/09 18:52:50;;;;;;;25.10;17.90;;;;;;;1.34;79.02;101895.88;104427;1320;93399;-67
2021/11/09 18:55:39;;;;;;;26.10;19.10;;;;;;;1.33;79.15;101897.38;104334;1317;138485;-67
2021/11/09 18:58:26;;;;;;;26.30;19.00;;;;;;;1.30;79.41;101889.08;104516;1316;109702;-66
2021/11/09 19:01:13;;;;;;;30.50;19.40;;;;;;;1.28;79.37;101882.31;104374;1315;139388;-66
2021/11/09 19:04:00;;;;;;;;;;;;;;;1.26;79.43;101877.44;104232;1316;107938;-66
2021/11/09 19:06:47;;;;;;;25.60;17.90;;;;;;;1.24;79.40;101870.36;103039;1317;124359;-67
2021/11/09 19:09:35;;;;;;;29.30;20.40;;;;;;;1.26;79.52;101869.39;103006;1318;95143;-66